createdAt,value
2018-05-03T00:00:05.197Z,60.46
2018-05-03T00:02:34.361Z,60.41
2018-05-03T00:05:04.427Z,59.54
2018-05-03T00:07:33.622Z,58.90
2018-05-03T00:10:02.764Z,58.97
2018-05-03T00:12:31.921Z,58.81
2018-05-03T00:15:01.829Z,58.61
2018-05-03T00:17:31.739Z,58.47
2018-05-03T00:20:00.900Z,57.82
2018-05-03T00:22:30.053Z,58.41
2018-05-03T00:25:00.893Z,58.72
2018-05-03T00:27:30.025Z,59.18
2018-05-03T00:30:01.126Z,59.85
2018-05-03T00:32:30.267Z,60.22
2018-05-03T00:35:00.170Z,60.23
2018-05-03T00:37:29.473Z,59.86
2018-05-03T00:39:58.598Z,59.50
2018-05-03T00:42:27.776Z,59.02
2018-05-03T00:44:58.018Z,59.73
2018-05-03T00:47:27.194Z,59.99
2018-05-03T00:49:56.326Z,59.64
2018-05-03T00:52:25.541Z,59.04
2018-05-03T00:54:55.428Z,59.06
2018-05-03T00:57:24.605Z,60.03
2018-05-03T00:59:53.742Z,59.23
2018-05-03T01:02:23.681Z,58.70
2018-05-03T01:05:01.765Z,58.43
2018-05-03T01:07:38.484Z,58.71
2018-05-03T01:10:11.074Z,61.19
2018-05-03T01:12:44.074Z,61.61
2018-05-03T01:15:18.492Z,61.23
2018-05-03T01:17:53.153Z,62.16
2018-05-03T01:20:26.947Z,62.79
2018-05-03T01:22:58.677Z,63.77
2018-05-03T01:25:32.270Z,63.21
2018-05-03T01:28:05.080Z,63.58
2018-05-03T01:30:35.755Z,63.28
2018-05-03T01:33:05.662Z,62.25
2018-05-03T01:35:53.124Z,63.15
2018-05-03T01:38:22.400Z,63.40
2018-05-03T01:40:52.328Z,63.04
2018-05-03T01:43:21.524Z,61.85
2018-05-03T01:45:51.449Z,61.89
2018-05-03T01:48:20.829Z,61.78
2018-05-03T01:50:50.726Z,61.82
2018-05-03T01:53:19.904Z,62.28
2018-05-03T01:55:49.084Z,62.21
2018-05-03T01:58:18.984Z,63.26
2018-05-03T02:00:48.157Z,63.97
2018-05-03T02:03:17.290Z,64.84
2018-05-03T02:05:47.245Z,65.33
2018-05-03T02:08:16.605Z,65.52
2018-05-03T02:10:46.525Z,65.14
2018-05-03T02:13:16.315Z,65.66
2018-05-03T02:15:48.013Z,65.56
2018-05-03T02:18:17.151Z,65.67
2018-05-03T02:20:47.331Z,65.81
2018-05-03T02:23:16.466Z,65.92
2018-05-03T02:25:45.659Z,66.37
2018-05-03T02:28:14.813Z,66.62
2018-05-03T02:30:44.063Z,66.96
2018-05-03T02:33:15.235Z,66.60
2018-05-03T02:35:45.134Z,66.30
2018-05-03T02:38:14.270Z,65.27
2018-05-03T02:40:43.403Z,65.94
2018-05-03T02:43:12.553Z,65.61
2018-05-03T02:45:41.725Z,64.47
2018-05-03T02:48:10.885Z,64.37
2018-05-03T02:50:40.037Z,64.32
2018-05-03T02:53:09.965Z,63.82
2018-05-03T02:55:39.105Z,64.67
2018-05-03T02:58:28.206Z,66.08
2018-05-03T03:01:23.755Z,66.78
2018-05-03T03:04:18.476Z,67.35
2018-05-03T03:11:02.679Z,68.26
2018-05-03T03:17:19.693Z,67.81
2018-05-03T03:20:12.983Z,66.95
2018-05-03T03:23:07.227Z,66.53
2018-05-03T03:29:32.977Z,64.79
2018-05-03T03:32:20.384Z,64.23
2018-05-03T03:35:06.666Z,64.84
2018-05-03T03:37:54.344Z,64.33
2018-05-03T03:40:42.278Z,64.37
2018-05-03T03:43:29.043Z,64.45
2018-05-03T03:45:59.029Z,65.22
2018-05-03T03:48:29.165Z,65.47
2018-05-03T03:50:59.087Z,64.67
2018-05-03T03:53:28.986Z,63.92
2018-05-03T03:55:58.580Z,64.65
2018-05-03T03:58:29.231Z,64.64
2018-05-03T04:00:59.147Z,64.77
2018-05-03T04:03:29.322Z,65.14
2018-05-03T04:05:58.467Z,66.19
2018-05-03T04:08:28.466Z,66.01
2018-05-03T04:10:57.549Z,64.69
2018-05-03T04:13:26.749Z,63.96
2018-05-03T04:15:55.898Z,64.41
2018-05-03T04:18:42.724Z,65.78
2018-05-03T04:45:28.296Z,69.31
2018-05-03T04:47:58.273Z,69.30
2018-05-03T04:50:28.238Z,69.47
2018-05-03T04:52:58.598Z,69.29
2018-05-03T04:55:27.746Z,69.28
2018-05-03T04:57:56.921Z,68.84
2018-05-03T05:00:26.868Z,68.05
2018-05-03T05:02:56.032Z,66.80
2018-05-03T05:05:26.562Z,67.66
2018-05-03T05:07:55.735Z,66.94
2018-05-03T05:10:25.067Z,66.62
2018-05-03T05:12:54.930Z,66.29
2018-05-03T05:15:24.866Z,65.90
2018-05-03T05:17:54.164Z,64.93
2018-05-03T05:20:23.388Z,64.82
2018-05-03T05:22:52.555Z,64.78
2018-05-03T05:25:22.659Z,66.39
2018-05-03T05:27:52.574Z,67.31
2018-05-03T05:30:21.801Z,67.87
2018-05-03T05:32:51.020Z,68.41
2018-05-03T05:35:20.176Z,69.22
2018-05-03T05:37:49.350Z,68.99
2018-05-03T05:40:19.296Z,69.18
2018-05-03T05:42:48.465Z,69.25
2018-05-03T05:45:18.372Z,68.86
2018-05-03T05:47:48.337Z,67.03
2018-05-03T05:50:17.487Z,66.01
2018-05-03T05:52:47.412Z,65.68
2018-05-03T05:55:17.307Z,65.81
2018-05-03T05:57:47.266Z,65.71
2018-05-03T06:00:16.426Z,65.66
2018-05-03T06:02:46.337Z,65.31
2018-05-03T06:05:16.456Z,65.87
2018-05-03T06:07:45.611Z,66.84
2018-05-03T06:10:14.819Z,66.57
2018-05-03T06:12:43.913Z,66.58
2018-05-03T06:15:13.112Z,66.51
2018-05-03T06:17:42.276Z,67.06
2018-05-03T06:20:12.376Z,66.90
2018-05-03T06:22:42.298Z,67.58
2018-05-03T06:25:11.475Z,67.83
2018-05-03T06:27:41.389Z,68.19
2018-05-03T06:30:11.311Z,68.31
2018-05-03T06:32:41.229Z,68.15
2018-05-03T06:35:11.149Z,68.07
2018-05-03T06:37:40.418Z,66.97
2018-05-03T06:40:09.601Z,66.97
2018-05-03T06:42:38.760Z,67.25
2018-05-03T06:45:07.920Z,66.99
2018-05-03T06:47:37.078Z,66.24
2018-05-03T06:50:06.288Z,66.21
2018-05-03T06:52:35.493Z,65.12
2018-05-03T06:55:05.686Z,64.14
2018-05-03T06:57:34.884Z,64.75
2018-05-03T07:00:04.064Z,65.31
2018-05-03T07:02:34.061Z,65.84
2018-05-03T07:05:04.003Z,65.30
2018-05-03T07:07:34.115Z,61.98
2018-05-03T07:10:03.322Z,60.83
2018-05-03T07:12:33.181Z,60.67
2018-05-03T07:15:02.364Z,60.10
2018-05-03T07:17:31.502Z,59.57
2018-05-03T07:20:01.424Z,59.15
2018-05-03T07:22:32.277Z,59.53
2018-05-03T07:25:02.170Z,59.81
2018-05-03T07:27:31.334Z,59.02
2018-05-03T07:30:00.475Z,59.60
2018-05-03T07:32:30.591Z,58.99
2018-05-03T07:34:59.722Z,59.33
2018-05-03T07:37:29.918Z,58.87
2018-05-03T07:39:59.092Z,58.94
2018-05-03T07:42:28.981Z,59.14
2018-05-03T07:44:58.416Z,59.29
2018-05-03T07:47:27.586Z,58.66
2018-05-03T07:49:56.728Z,58.26
2018-05-03T07:52:25.878Z,57.09
2018-05-03T07:54:55.657Z,57.39
2018-05-03T07:57:25.893Z,57.35
2018-05-03T07:59:55.065Z,57.06
2018-05-03T08:02:25.184Z,57.10
2018-05-03T08:04:54.344Z,57.24
2018-05-03T08:07:24.308Z,55.97
2018-05-03T08:09:53.459Z,56.21
2018-05-03T08:12:23.390Z,56.61
2018-05-03T08:14:53.437Z,55.49
2018-05-03T08:17:23.567Z,55.23
2018-05-03T08:19:53.477Z,55.43
2018-05-03T08:22:23.491Z,55.13
2018-05-03T08:24:53.371Z,54.80
2018-05-03T08:27:24.172Z,54.54
2018-05-03T08:29:53.527Z,54.23
2018-05-03T08:32:23.214Z,53.97
2018-05-03T08:34:52.392Z,53.43
2018-05-03T08:37:21.530Z,53.39
2018-05-03T08:39:50.713Z,53.36
2018-05-03T08:42:20.849Z,53.38
2018-05-03T08:44:50.029Z,53.28
2018-05-03T08:47:19.162Z,52.74
2018-05-03T08:49:48.321Z,52.61
2018-05-03T08:52:17.480Z,53.40
2018-05-03T08:54:47.257Z,52.44
2018-05-03T08:57:16.453Z,51.46
2018-05-03T08:59:45.614Z,51.35
2018-05-03T09:02:15.535Z,51.08
2018-05-03T09:04:45.446Z,50.39
2018-05-03T09:07:15.370Z,49.74
2018-05-03T09:09:44.532Z,49.73
2018-05-03T09:12:13.704Z,49.33
2018-05-03T09:14:42.899Z,49.66
2018-05-03T09:17:12.053Z,48.63
2018-05-03T09:19:41.978Z,49.17
2018-05-03T09:22:11.580Z,48.75
2018-05-03T09:24:40.727Z,48.54
2018-05-03T09:27:09.862Z,47.91
2018-05-03T09:29:40.734Z,47.51
2018-05-03T09:32:09.943Z,47.89
2018-05-03T09:34:39.126Z,47.25
2018-05-03T09:37:08.284Z,48.26
2018-05-03T09:39:38.234Z,47.68
2018-05-03T09:42:07.367Z,47.89
2018-05-03T09:44:36.717Z,47.81
2018-05-03T09:47:05.859Z,48.41
2018-05-03T09:49:35.803Z,48.62
2018-05-03T09:52:05.752Z,49.29
2018-05-03T09:54:35.970Z,49.14
2018-05-03T09:57:05.131Z,50.70
2018-05-03T09:59:34.288Z,51.02
2018-05-03T10:02:03.445Z,49.43
2018-05-03T10:04:34.404Z,49.22
2018-05-03T10:07:03.618Z,50.34
2018-05-03T10:09:32.763Z,49.41
2018-05-03T10:12:02.793Z,49.52
2018-05-03T10:14:32.693Z,49.66
2018-05-03T10:17:02.626Z,47.47
2018-05-03T10:19:32.734Z,47.28
2018-05-03T10:22:02.686Z,47.72
2018-05-03T10:24:31.827Z,47.81
2018-05-03T10:27:01.065Z,47.21
2018-05-03T10:29:30.201Z,46.37
2018-05-03T10:31:59.413Z,45.92
2018-05-03T10:34:28.585Z,46.63
2018-05-03T10:36:57.737Z,46.76
2018-05-03T10:39:27.891Z,46.90
2018-05-03T10:41:57.077Z,45.88
2018-05-03T10:44:27.933Z,47.39
2018-05-03T10:46:57.149Z,47.45
2018-05-03T10:49:26.310Z,46.87
2018-05-03T10:51:55.476Z,46.76
2018-05-03T10:54:25.385Z,46.74
2018-05-03T10:56:55.313Z,46.21
2018-05-03T10:59:25.453Z,45.54
2018-05-03T11:01:54.614Z,45.23
2018-05-03T11:04:24.749Z,44.81
2018-05-03T11:06:54.692Z,45.55
2018-05-03T11:09:24.666Z,44.71
2018-05-03T11:11:53.802Z,45.92
2018-05-03T11:14:22.985Z,45.38
2018-05-03T11:16:52.923Z,46.41
2018-05-03T11:19:22.049Z,45.64
2018-05-03T11:21:51.250Z,45.83
2018-05-03T11:24:20.389Z,45.89
2018-05-03T11:26:50.369Z,45.04
2018-05-03T11:29:19.598Z,46.64
2018-05-03T11:31:49.313Z,45.69
2018-05-03T11:34:19.277Z,45.07
2018-05-03T11:36:48.551Z,44.96
2018-05-03T11:39:17.653Z,45.49
2018-05-03T11:41:46.795Z,44.46
2018-05-03T11:44:15.986Z,45.26
2018-05-03T11:46:47.852Z,44.75
2018-05-03T11:49:17.016Z,43.78
2018-05-03T11:51:46.161Z,42.83
2018-05-03T11:54:15.339Z,42.96
2018-05-03T11:56:44.520Z,42.85
2018-05-03T11:59:13.694Z,42.51
2018-05-03T12:01:43.798Z,42.51
2018-05-03T12:04:12.981Z,43.17
2018-05-03T12:06:42.905Z,43.51
2018-05-03T12:09:12.123Z,42.75
2018-05-03T12:11:41.267Z,42.93
2018-05-03T12:14:10.376Z,43.27
2018-05-03T12:16:40.339Z,42.06
2018-05-03T12:19:09.509Z,41.44
2018-05-03T12:21:38.652Z,41.75
2018-05-03T12:24:07.833Z,41.72
2018-05-03T12:26:36.966Z,40.78
2018-05-03T12:29:06.895Z,41.80
2018-05-03T12:31:37.622Z,42.46
2018-05-03T12:34:07.604Z,41.38
2018-05-03T12:36:36.751Z,42.34
2018-05-03T12:39:06.715Z,42.05
2018-05-03T12:41:36.695Z,41.13
2018-05-03T12:44:06.706Z,41.01
2018-05-03T12:46:36.596Z,41.65
2018-05-03T12:49:05.746Z,41.82
2018-05-03T12:51:35.924Z,41.90
2018-05-03T12:54:05.088Z,42.03
2018-05-03T12:56:35.029Z,41.80
2018-05-03T12:59:04.191Z,42.25
2018-05-03T13:01:33.348Z,41.67
2018-05-03T13:04:03.274Z,41.52
2018-05-03T13:06:32.434Z,40.41
2018-05-03T13:09:01.575Z,40.71
2018-05-03T13:11:31.386Z,40.71
2018-05-03T13:14:00.604Z,40.67
2018-05-03T13:16:29.772Z,39.92
2018-05-03T13:18:58.908Z,38.91
2018-05-03T13:21:28.073Z,38.71
2018-05-03T13:23:57.227Z,39.58
2018-05-03T13:26:27.145Z,39.30
2018-05-03T13:28:57.108Z,38.80
2018-05-03T13:31:27.078Z,40.08
2018-05-03T13:33:57.002Z,39.38
2018-05-03T13:36:26.936Z,38.87
2018-05-03T13:38:56.930Z,39.39
2018-05-03T13:41:26.859Z,39.34
2018-05-03T13:43:56.024Z,40.03
2018-05-03T13:46:26.725Z,40.01
2018-05-03T13:48:56.044Z,41.00
2018-05-03T13:51:25.247Z,41.54
2018-05-03T13:53:54.354Z,41.38
2018-05-03T13:56:23.488Z,41.49
2018-05-03T13:58:52.661Z,41.11
2018-05-03T14:01:23.442Z,41.10
2018-05-03T14:03:52.670Z,40.95
2018-05-03T14:06:21.865Z,40.91
2018-05-03T14:08:51.015Z,40.95
2018-05-03T14:11:20.251Z,40.99
2018-05-03T14:13:51.103Z,41.64
2018-05-03T14:16:20.283Z,41.41
2018-05-03T14:18:52.163Z,40.56
2018-05-03T14:21:21.308Z,40.92
2018-05-03T14:23:51.151Z,40.64
2018-05-03T14:26:21.245Z,42.17
2018-05-03T14:28:50.419Z,41.71
2018-05-03T14:31:20.367Z,41.48
2018-05-03T14:33:49.530Z,41.38
2018-05-03T14:36:19.442Z,41.47
2018-05-03T14:38:48.605Z,41.28
2018-05-03T14:41:17.796Z,40.85
2018-05-03T14:43:47.901Z,41.56
2018-05-03T14:46:17.095Z,41.69
2018-05-03T14:48:47.033Z,41.68
2018-05-03T14:51:16.211Z,41.60
2018-05-03T14:53:45.378Z,41.90
2018-05-03T14:56:15.177Z,41.07
2018-05-03T14:58:45.141Z,40.91
2018-05-03T15:01:14.811Z,42.46
2018-05-03T15:03:44.964Z,42.03
2018-05-03T15:06:14.126Z,41.69
2018-05-03T15:08:44.034Z,42.50
2018-05-03T15:11:13.983Z,42.19
2018-05-03T15:13:44.115Z,41.86
2018-05-03T15:16:13.337Z,41.85
2018-05-03T15:18:43.249Z,41.57
2018-05-03T15:21:12.397Z,40.93
2018-05-03T15:23:41.576Z,40.67
2018-05-03T15:26:11.522Z,41.11
2018-05-03T15:28:40.699Z,39.93
2018-05-03T15:31:10.636Z,39.56
2018-05-03T15:33:40.114Z,39.64
2018-05-03T15:36:10.049Z,38.64
2018-05-03T15:38:39.245Z,38.68
2018-05-03T15:41:08.426Z,38.94
2018-05-03T15:43:38.362Z,39.06
2018-05-03T15:46:07.518Z,38.48
2018-05-03T15:48:38.116Z,38.52
2018-05-03T15:51:07.283Z,38.13
2018-05-03T15:53:36.427Z,38.38
2018-05-03T15:56:05.578Z,38.36
2018-05-03T15:58:34.731Z,38.56
2018-05-03T16:01:04.663Z,38.25
2018-05-03T16:03:33.849Z,38.14
2018-05-03T16:06:03.847Z,38.07
2018-05-03T16:08:33.019Z,37.80
2018-05-03T16:11:02.192Z,38.15
2018-05-03T16:13:32.351Z,37.58
2018-05-03T16:16:01.533Z,37.03
2018-05-03T16:18:31.651Z,37.45
2018-05-03T16:21:00.845Z,36.91
2018-05-03T16:23:30.781Z,37.05
2018-05-03T16:25:59.937Z,37.84
2018-05-03T16:28:29.140Z,37.69
2018-05-03T16:30:59.128Z,37.33
2018-05-03T16:33:28.336Z,37.22
2018-05-03T16:35:57.494Z,37.36
2018-05-03T16:38:26.690Z,37.84
2018-05-03T16:40:55.856Z,37.87
2018-05-03T16:43:25.062Z,38.06
2018-05-03T16:45:54.218Z,37.24
2018-05-03T16:48:23.404Z,37.39
2018-05-03T16:50:53.373Z,36.27
2018-05-03T16:53:22.562Z,34.85
2018-05-03T16:55:51.714Z,35.47
2018-05-03T16:58:21.668Z,35.30
2018-05-03T17:00:50.840Z,33.63
2018-05-03T17:03:20.058Z,33.57
2018-05-03T17:05:51.034Z,31.68
2018-05-03T17:08:21.218Z,31.19
2018-05-03T17:10:50.387Z,30.23
2018-05-03T17:13:20.389Z,29.83
2018-05-03T17:15:50.763Z,29.41
2018-05-03T17:18:19.924Z,28.92
2018-05-03T17:20:49.911Z,28.16
2018-05-03T17:23:19.045Z,28.85
2018-05-03T17:25:49.050Z,28.50
2018-05-03T17:28:18.984Z,28.60
2018-05-03T17:30:49.065Z,28.82
2018-05-03T17:33:18.221Z,29.24
2018-05-03T17:35:47.418Z,29.65
2018-05-03T17:38:17.386Z,29.14
2018-05-03T17:40:47.298Z,29.18
2018-05-03T17:43:17.396Z,29.66
2018-05-03T17:45:46.616Z,30.12
2018-05-03T17:48:15.817Z,32.52
2018-05-03T17:50:45.790Z,34.47
2018-05-03T17:53:14.968Z,35.56
2018-05-03T17:55:44.129Z,36.43
2018-05-03T17:58:13.338Z,37.22
2018-05-03T18:00:42.534Z,37.57
2018-05-03T18:03:11.829Z,38.36
2018-05-03T18:05:42.418Z,38.46
2018-05-03T18:08:11.634Z,39.34
2018-05-03T18:10:43.462Z,39.48
2018-05-03T18:13:12.797Z,39.94
2018-05-03T18:15:42.045Z,40.31
2018-05-03T18:18:11.199Z,40.62
2018-05-03T18:20:42.566Z,40.74
2018-05-03T18:23:11.860Z,40.92
2018-05-03T18:25:41.541Z,41.50
2018-05-03T18:28:11.247Z,41.68
2018-05-03T18:30:42.055Z,42.03
2018-05-03T18:33:11.252Z,42.53
2018-05-03T18:35:41.457Z,42.45
2018-05-03T18:38:10.642Z,42.17
2018-05-03T18:40:41.793Z,42.35
2018-05-03T18:43:10.996Z,42.94
2018-05-03T18:45:42.226Z,43.21
2018-05-03T18:48:12.237Z,43.51
2018-05-03T18:50:41.615Z,43.90
2018-05-03T18:53:11.545Z,43.77
2018-05-03T18:55:41.611Z,43.99
2018-05-03T18:58:10.759Z,44.54
2018-05-03T19:00:39.933Z,44.58
2018-05-03T19:03:09.869Z,44.55
2018-05-03T19:05:39.042Z,44.67
2018-05-03T19:08:08.999Z,44.79
2018-05-03T19:10:38.160Z,45.27
2018-05-03T19:13:07.404Z,45.34
2018-05-03T19:15:36.879Z,45.52
2018-05-03T19:18:06.862Z,45.58
2018-05-03T19:20:36.087Z,45.97
2018-05-03T19:23:07.970Z,46.27
2018-05-03T19:25:37.168Z,46.58
2018-05-03T19:28:07.351Z,46.70
2018-05-03T19:30:36.490Z,46.46
2018-05-03T19:33:05.632Z,46.51
2018-05-03T19:35:34.812Z,46.63
2018-05-03T19:38:04.002Z,47.25
2018-05-03T19:40:33.178Z,47.12
2018-05-03T19:43:03.173Z,47.39
2018-05-03T19:45:33.117Z,47.83
2018-05-03T19:48:02.286Z,47.91
2018-05-03T19:50:32.254Z,47.40
2018-05-03T19:53:01.424Z,47.47
2018-05-03T19:55:30.629Z,47.99
2018-05-03T19:57:59.828Z,47.48
2018-05-03T20:00:29.037Z,47.54
2018-05-03T20:02:58.201Z,47.23
2018-05-03T20:05:27.383Z,47.91
2018-05-03T20:07:57.354Z,47.75
2018-05-03T20:10:26.519Z,47.24
2018-05-03T20:12:55.667Z,47.29
2018-05-03T20:15:24.880Z,47.77
2018-05-03T20:17:54.048Z,47.38
2018-05-03T20:20:23.217Z,47.22
2018-05-03T20:22:52.394Z,47.46
2018-05-03T20:25:22.313Z,47.50
2018-05-03T20:27:51.483Z,47.41
2018-05-03T20:30:20.653Z,47.28
2018-05-03T20:32:49.840Z,46.95
2018-05-03T20:35:19.790Z,47.00
2018-05-03T20:37:50.499Z,47.34
2018-05-03T20:40:19.679Z,47.11
2018-05-03T20:42:48.841Z,46.98
2018-05-03T20:45:18.011Z,46.89
2018-05-03T20:47:47.185Z,46.71
2018-05-03T20:50:16.358Z,46.69
2018-05-03T20:52:45.589Z,46.71
2018-05-03T20:55:14.741Z,46.56
2018-05-03T20:57:44.834Z,46.59
2018-05-03T21:00:14.789Z,46.71
2018-05-03T21:02:45.740Z,46.59
2018-05-03T21:05:14.869Z,46.70
2018-05-03T21:07:44.035Z,46.77
2018-05-03T21:10:13.202Z,46.64
2018-05-03T21:12:42.487Z,46.78
2018-05-03T21:15:11.666Z,46.86
2018-05-03T21:17:40.831Z,46.92
2018-05-03T21:20:10.030Z,46.78
2018-05-03T21:22:39.195Z,46.64
2018-05-03T21:25:09.131Z,46.92
2018-05-03T21:27:38.302Z,46.73
2018-05-03T21:30:08.237Z,46.74
2018-05-03T21:32:37.406Z,46.69
2018-05-03T21:35:08.268Z,47.17
2018-05-03T21:37:38.199Z,47.04
2018-05-03T21:40:07.409Z,47.09
2018-05-03T21:42:37.310Z,47.07
2018-05-03T21:45:06.437Z,47.24
2018-05-03T21:47:35.599Z,47.22
2018-05-03T21:50:05.762Z,47.35
2018-05-03T21:52:35.681Z,46.84
2018-05-03T21:55:04.850Z,46.75
2018-05-03T21:57:34.006Z,46.88
2018-05-03T22:00:03.968Z,47.12
2018-05-03T22:02:34.033Z,47.40
2018-05-03T22:05:03.975Z,47.17
2018-05-03T22:07:33.133Z,47.42
2018-05-03T22:10:03.086Z,47.70
2018-05-03T22:12:32.252Z,47.65
2018-05-03T22:15:03.127Z,47.67
2018-05-03T22:17:32.354Z,47.78
2018-05-03T22:20:01.497Z,48.01
2018-05-03T22:22:31.399Z,48.36
2018-05-03T22:25:02.253Z,47.97
2018-05-03T22:27:32.168Z,48.16
2018-05-03T22:30:02.274Z,48.80
2018-05-03T22:32:31.427Z,49.28
2018-05-03T22:35:00.571Z,49.49
2018-05-03T22:37:29.770Z,49.66
2018-05-03T22:39:59.692Z,49.92
2018-05-03T22:42:29.617Z,49.84
2018-05-03T22:44:58.769Z,49.61
2018-05-03T22:47:27.895Z,49.54
2018-05-03T22:49:57.842Z,49.83
2018-05-03T22:52:27.014Z,49.66
2018-05-03T22:54:56.951Z,49.57
2018-05-03T22:57:26.090Z,49.57
2018-05-03T22:59:55.256Z,49.58
2018-05-03T23:02:24.401Z,49.97
2018-05-03T23:04:53.544Z,50.08
2018-05-03T23:07:23.481Z,50.49
2018-05-03T23:09:52.620Z,50.63
2018-05-03T23:12:23.509Z,50.65
2018-05-03T23:14:52.666Z,51.04
2018-05-03T23:17:22.582Z,51.35
2018-05-03T23:19:52.491Z,51.83
2018-05-03T23:22:22.408Z,51.64
2018-05-03T23:24:52.325Z,51.32
2018-05-03T23:27:22.239Z,50.36
2018-05-03T23:29:51.408Z,50.52
2018-05-03T23:32:21.047Z,50.93
2018-05-03T23:34:50.958Z,51.28
2018-05-03T23:37:20.872Z,50.90
2018-05-03T23:39:50.786Z,51.33
2018-05-03T23:42:21.638Z,51.03
2018-05-03T23:44:50.807Z,50.51
2018-05-03T23:47:19.985Z,50.08
2018-05-03T23:49:49.206Z,50.53
2018-05-03T23:52:18.378Z,50.86
2018-05-03T23:54:47.542Z,50.81
2018-05-03T23:57:17.603Z,51.76
2018-05-03T23:59:46.733Z,51.27
